sensor_id;sensor_type;location;lat;lon;timestamp;P1;durP1;ratioP1;P2;durP2;ratioP2
10523;SDS011;5310;48.638;9.060;2024-01-07T00:00:34;1.10;;;1.10;;
10523;SDS011;5310;48.638;9.060;2024-01-07T00:03:00;1.10;;;1.10;;
10523;SDS011;5310;48.638;9.060;2024-01-07T00:05:26;1.00;;;1.00;;
10523;SDS011;5310;48.638;9.060;2024-01-07T00:07:52;1.07;;;1.07;;
10523;SDS011;5310;48.638;9.060;2024-01-07T00:10:18;1.00;;;1.00;;
10523;SDS011;5310;48.638;9.060;2024-01-07T00:12:44;1.03;;;1.03;;
10523;SDS011;5310;48.638;9.060;2024-01-07T00:15:10;1.00;;;1.00;;
10523;SDS011;5310;48.638;9.060;2024-01-07T00:17:36;1.10;;;1.10;;
10523;SDS011;5310;48.638;9.060;2024-01-07T00:20:02;1.00;;;1.00;;
10523;SDS011;5310;48.638;9.060;2024-01-07T00:22:28;1.10;;;1.10;;
10523;SDS011;5310;48.638;9.060;2024-01-07T00:24:53;1.10;;;1.10;;
10523;SDS011;5310;48.638;9.060;2024-01-07T00:27:19;1.00;;;1.00;;
10523;SDS011;5310;48.638;9.060;2024-01-07T00:29:45;1.10;;;1.10;;
10523;SDS011;5310;48.638;9.060;2024-01-07T00:32:11;1.10;;;1.10;;
10523;SDS011;5310;48.638;9.060;2024-01-07T00:34:38;1.00;;;1.00;;
10523;SDS011;5310;48.638;9.060;2024-01-07T00:37:04;1.10;;;1.10;;
10523;SDS011;5310;48.638;9.060;2024-01-07T00:39:30;1.00;;;1.00;;
10523;SDS011;5310;48.638;9.060;2024-01-07T00:41:56;1.03;;;1.03;;
10523;SDS011;5310;48.638;9.060;2024-01-07T00:44:22;1.10;;;1.10;;
10523;SDS011;5310;48.638;9.060;2024-01-07T00:46:48;1.10;;;1.10;;
10523;SDS011;5310;48.638;9.060;2024-01-07T00:49:14;1.10;;;1.10;;
10523;SDS011;5310;48.638;9.060;2024-01-07T00:51:40;1.10;;;1.10;;
10523;SDS011;5310;48.638;9.060;2024-01-07T00:54:06;1.00;;;1.00;;
10523;SDS011;5310;48.638;9.060;2024-01-07T00:56:32;1.00;;;1.00;;
10523;SDS011;5310;48.638;9.060;2024-01-07T00:58:58;1.00;;;1.00;;
10523;SDS011;5310;48.638;9.060;2024-01-07T01:01:24;1.00;;;1.00;;
10523;SDS011;5310;48.638;9.060;2024-01-07T01:03:49;1.00;;;1.00;;
10523;SDS011;5310;48.638;9.060;2024-01-07T01:06:15;1.00;;;1.00;;
10523;SDS011;5310;48.638;9.060;2024-01-07T01:08:41;1.07;;;1.07;;
10523;SDS011;5310;48.638;9.060;2024-01-07T01:11:10;1.00;;;1.00;;
10523;SDS011;5310;48.638;9.060;2024-01-07T01:13:36;1.00;;;1.00;;
10523;SDS011;5310;48.638;9.060;2024-01-07T01:16:02;1.10;;;1.10;;
10523;SDS011;5310;48.638;9.060;2024-01-07T01:18:28;1.10;;;1.10;;
10523;SDS011;5310;48.638;9.060;2024-01-07T01:20:55;1.10;;;1.10;;
10523;SDS011;5310;48.638;9.060;2024-01-07T01:23:22;1.10;;;1.10;;
10523;SDS011;5310;48.638;9.060;2024-01-07T01:25:48;1.10;;;1.10;;
10523;SDS011;5310;48.638;9.060;2024-01-07T01:28:14;1.00;;;1.00;;
10523;SDS011;5310;48.638;9.060;2024-01-07T01:30:40;1.10;;;1.10;;
10523;SDS011;5310;48.638;9.060;2024-01-07T01:33:06;1.10;;;1.10;;
10523;SDS011;5310;48.638;9.060;2024-01-07T01:35:32;1.10;;;1.10;;
10523;SDS011;5310;48.638;9.060;2024-01-07T01:37:58;1.10;;;1.10;;
10523;SDS011;5310;48.638;9.060;2024-01-07T01:40:24;1.00;;;1.00;;
10523;SDS011;5310;48.638;9.060;2024-01-07T01:42:50;0.97;;;0.97;;
10523;SDS011;5310;48.638;9.060;2024-01-07T01:45:16;1.10;;;1.10;;
10523;SDS011;5310;48.638;9.060;2024-01-07T01:47:41;1.00;;;1.00;;
10523;SDS011;5310;48.638;9.060;2024-01-07T01:50:08;1.00;;;1.00;;
10523;SDS011;5310;48.638;9.060;2024-01-07T01:52:34;1.00;;;1.00;;
10523;SDS011;5310;48.638;9.060;2024-01-07T01:55:01;1.10;;;1.10;;
10523;SDS011;5310;48.638;9.060;2024-01-07T01:57:28;1.10;;;1.10;;
10523;SDS011;5310;48.638;9.060;2024-01-07T01:59:56;1.00;;;1.00;;
10523;SDS011;5310;48.638;9.060;2024-01-07T02:02:28;1.10;;;1.10;;
10523;SDS011;5310;48.638;9.060;2024-01-07T02:04:56;1.10;;;1.10;;
10523;SDS011;5310;48.638;9.060;2024-01-07T02:07:22;1.10;;;1.10;;
10523;SDS011;5310;48.638;9.060;2024-01-07T02:09:48;1.10;;;1.10;;
10523;SDS011;5310;48.638;9.060;2024-01-07T02:12:14;1.00;;;1.00;;
10523;SDS011;5310;48.638;9.060;2024-01-07T02:14:40;1.00;;;1.00;;
10523;SDS011;5310;48.638;9.060;2024-01-07T02:17:06;1.10;;;1.10;;
10523;SDS011;5310;48.638;9.060;2024-01-07T02:19:32;1.10;;;1.10;;
10523;SDS011;5310;48.638;9.060;2024-01-07T02:21:58;1.10;;;1.10;;
10523;SDS011;5310;48.638;9.060;2024-01-07T02:24:24;1.10;;;1.10;;
10523;SDS011;5310;48.638;9.060;2024-01-07T02:26:49;1.00;;;1.00;;
10523;SDS011;5310;48.638;9.060;2024-01-07T02:29:15;1.10;;;1.10;;
10523;SDS011;5310;48.638;9.060;2024-01-07T02:31:41;1.10;;;1.10;;
10523;SDS011;5310;48.638;9.060;2024-01-07T02:34:10;1.10;;;1.10;;
10523;SDS011;5310;48.638;9.060;2024-01-07T02:36:36;1.10;;;1.10;;
10523;SDS011;5310;48.638;9.060;2024-01-07T02:39:02;1.10;;;1.10;;
10523;SDS011;5310;48.638;9.060;2024-01-07T02:41:28;1.10;;;1.10;;
10523;SDS011;5310;48.638;9.060;2024-01-07T02:43:54;1.10;;;1.10;;
10523;SDS011;5310;48.638;9.060;2024-01-07T02:46:20;1.00;;;1.00;;
10523;SDS011;5310;48.638;9.060;2024-01-07T02:48:48;1.00;;;1.00;;
10523;SDS011;5310;48.638;9.060;2024-01-07T02:51:14;1.10;;;1.10;;
10523;SDS011;5310;48.638;9.060;2024-01-07T02:53:39;1.00;;;1.00;;
10523;SDS011;5310;48.638;9.060;2024-01-07T02:56:05;1.00;;;1.00;;
10523;SDS011;5310;48.638;9.060;2024-01-07T02:58:33;1.10;;;1.10;;
10523;SDS011;5310;48.638;9.060;2024-01-07T03:00:59;1.10;;;1.10;;
10523;SDS011;5310;48.638;9.060;2024-01-07T03:03:25;1.10;;;1.10;;
10523;SDS011;5310;48.638;9.060;2024-01-07T03:05:51;1.10;;;1.10;;
10523;SDS011;5310;48.638;9.060;2024-01-07T03:08:17;1.10;;;1.10;;
10523;SDS011;5310;48.638;9.060;2024-01-07T03:10:43;1.10;;;1.10;;
10523;SDS011;5310;48.638;9.060;2024-01-07T03:13:09;1.10;;;1.10;;
10523;SDS011;5310;48.638;9.060;2024-01-07T03:15:35;1.10;;;1.10;;
10523;SDS011;5310;48.638;9.060;2024-01-07T03:18:00;1.10;;;1.10;;
10523;SDS011;5310;48.638;9.060;2024-01-07T03:20:26;1.10;;;1.10;;
10523;SDS011;5310;48.638;9.060;2024-01-07T03:22:52;1.10;;;1.10;;
10523;SDS011;5310;48.638;9.060;2024-01-07T03:25:20;1.10;;;1.10;;
10523;SDS011;5310;48.638;9.060;2024-01-07T03:27:46;1.10;;;1.10;;
10523;SDS011;5310;48.638;9.060;2024-01-07T03:30:12;1.10;;;1.10;;
10523;SDS011;5310;48.638;9.060;2024-01-07T03:32:38;1.10;;;1.10;;
10523;SDS011;5310;48.638;9.060;2024-01-07T03:35:04;1.10;;;1.10;;
10523;SDS011;5310;48.638;9.060;2024-01-07T03:37:30;1.10;;;1.10;;
10523;SDS011;5310;48.638;9.060;2024-01-07T03:39:56;1.00;;;1.00;;
10523;SDS011;5310;48.638;9.060;2024-01-07T03:42:21;1.10;;;1.10;;
10523;SDS011;5310;48.638;9.060;2024-01-07T03:44:47;1.00;;;1.00;;
10523;SDS011;5310;48.638;9.060;2024-01-07T03:47:13;1.10;;;1.10;;
10523;SDS011;5310;48.638;9.060;2024-01-07T03:49:39;1.10;;;1.10;;
10523;SDS011;5310;48.638;9.060;2024-01-07T03:52:05;1.00;;;1.00;;
10523;SDS011;5310;48.638;9.060;2024-01-07T03:54:31;1.10;;;1.10;;
10523;SDS011;5310;48.638;9.060;2024-01-07T03:56:57;1.10;;;1.10;;
10523;SDS011;5310;48.638;9.060;2024-01-07T03:59:23;1.10;;;1.10;;
10523;SDS011;5310;48.638;9.060;2024-01-07T04:01:50;1.10;;;1.10;;
10523;SDS011;5310;48.638;9.060;2024-01-07T04:04:18;1.10;;;1.10;;
10523;SDS011;5310;48.638;9.060;2024-01-07T04:06:44;1.10;;;1.10;;
10523;SDS011;5310;48.638;9.060;2024-01-07T04:09:10;1.10;;;1.10;;
10523;SDS011;5310;48.638;9.060;2024-01-07T04:11:45;1.10;;;1.10;;
10523;SDS011;5310;48.638;9.060;2024-01-07T04:14:13;1.00;;;1.00;;
10523;SDS011;5310;48.638;9.060;2024-01-07T04:16:39;1.10;;;1.10;;
10523;SDS011;5310;48.638;9.060;2024-01-07T04:19:05;1.10;;;1.10;;
10523;SDS011;5310;48.638;9.060;2024-01-07T04:21:31;1.10;;;1.10;;
10523;SDS011;5310;48.638;9.060;2024-01-07T04:23:57;1.10;;;1.10;;
10523;SDS011;5310;48.638;9.060;2024-01-07T04:26:23;1.10;;;1.10;;
10523;SDS011;5310;48.638;9.060;2024-01-07T04:28:49;1.10;;;1.10;;
10523;SDS011;5310;48.638;9.060;2024-01-07T04:31:15;1.10;;;1.10;;
10523;SDS011;5310;48.638;9.060;2024-01-07T04:33:41;1.10;;;1.10;;
10523;SDS011;5310;48.638;9.060;2024-01-07T04:36:07;1.17;;;1.17;;
10523;SDS011;5310;48.638;9.060;2024-01-07T04:38:33;1.10;;;1.10;;
10523;SDS011;5310;48.638;9.060;2024-01-07T04:40:59;1.00;;;1.00;;
10523;SDS011;5310;48.638;9.060;2024-01-07T04:43:25;1.10;;;1.10;;
10523;SDS011;5310;48.638;9.060;2024-01-07T04:45:51;1.20;;;1.20;;
10523;SDS011;5310;48.638;9.060;2024-01-07T04:48:17;1.10;;;1.10;;
10523;SDS011;5310;48.638;9.060;2024-01-07T04:50:44;1.17;;;1.17;;
10523;SDS011;5310;48.638;9.060;2024-01-07T04:53:10;1.10;;;1.10;;
10523;SDS011;5310;48.638;9.060;2024-01-07T04:55:36;1.10;;;1.10;;
10523;SDS011;5310;48.638;9.060;2024-01-07T04:58:01;1.10;;;1.10;;
10523;SDS011;5310;48.638;9.060;2024-01-07T05:00:29;1.10;;;1.10;;
10523;SDS011;5310;48.638;9.060;2024-01-07T05:02:55;1.10;;;1.10;;
10523;SDS011;5310;48.638;9.060;2024-01-07T05:05:21;1.07;;;1.07;;
10523;SDS011;5310;48.638;9.060;2024-01-07T05:07:47;1.10;;;1.10;;
10523;SDS011;5310;48.638;9.060;2024-01-07T05:10:13;1.10;;;1.10;;
10523;SDS011;5310;48.638;9.060;2024-01-07T05:12:39;1.10;;;1.10;;
10523;SDS011;5310;48.638;9.060;2024-01-07T05:15:05;1.10;;;1.10;;
10523;SDS011;5310;48.638;9.060;2024-01-07T05:17:31;1.10;;;1.10;;
10523;SDS011;5310;48.638;9.060;2024-01-07T05:19:57;1.13;;;1.13;;
10523;SDS011;5310;48.638;9.060;2024-01-07T05:22:23;1.10;;;1.10;;
10523;SDS011;5310;48.638;9.060;2024-01-07T05:24:49;1.10;;;1.10;;
10523;SDS011;5310;48.638;9.060;2024-01-07T05:27:15;1.10;;;1.10;;
10523;SDS011;5310;48.638;9.060;2024-01-07T05:29:44;1.10;;;1.10;;
10523;SDS011;5310;48.638;9.060;2024-01-07T05:32:11;1.10;;;1.10;;
10523;SDS011;5310;48.638;9.060;2024-01-07T05:34:37;1.10;;;1.10;;
10523;SDS011;5310;48.638;9.060;2024-01-07T05:37:03;1.10;;;1.10;;
10523;SDS011;5310;48.638;9.060;2024-01-07T05:39:29;1.10;;;1.10;;
10523;SDS011;5310;48.638;9.060;2024-01-07T05:41:55;1.10;;;1.10;;
10523;SDS011;5310;48.638;9.060;2024-01-07T05:44:21;1.10;;;1.10;;
10523;SDS011;5310;48.638;9.060;2024-01-07T05:46:47;1.10;;;1.10;;
10523;SDS011;5310;48.638;9.060;2024-01-07T05:49:13;1.13;;;1.13;;
10523;SDS011;5310;48.638;9.060;2024-01-07T05:51:42;1.20;;;1.20;;
10523;SDS011;5310;48.638;9.060;2024-01-07T05:54:08;1.10;;;1.10;;
10523;SDS011;5310;48.638;9.060;2024-01-07T05:56:41;1.10;;;1.10;;
10523;SDS011;5310;48.638;9.060;2024-01-07T05:59:07;1.10;;;1.10;;
10523;SDS011;5310;48.638;9.060;2024-01-07T06:01:33;1.10;;;1.10;;
10523;SDS011;5310;48.638;9.060;2024-01-07T06:04:00;1.10;;;1.10;;
10523;SDS011;5310;48.638;9.060;2024-01-07T06:06:25;1.10;;;1.10;;
10523;SDS011;5310;48.638;9.060;2024-01-07T06:08:51;1.20;;;1.20;;
10523;SDS011;5310;48.638;9.060;2024-01-07T06:11:17;1.20;;;1.20;;
10523;SDS011;5310;48.638;9.060;2024-01-07T06:13:45;1.10;;;1.10;;
10523;SDS011;5310;48.638;9.060;2024-01-07T06:16:11;1.20;;;1.20;;
10523;SDS011;5310;48.638;9.060;2024-01-07T06:18:37;1.10;;;1.10;;
10523;SDS011;5310;48.638;9.060;2024-01-07T06:21:03;1.10;;;1.10;;
10523;SDS011;5310;48.638;9.060;2024-01-07T06:23:29;1.20;;;1.20;;
10523;SDS011;5310;48.638;9.060;2024-01-07T06:25:55;1.10;;;1.10;;
10523;SDS011;5310;48.638;9.060;2024-01-07T06:28:21;1.20;;;1.20;;
10523;SDS011;5310;48.638;9.060;2024-01-07T06:30:47;1.10;;;1.10;;
10523;SDS011;5310;48.638;9.060;2024-01-07T06:33:13;1.10;;;1.10;;
10523;SDS011;5310;48.638;9.060;2024-01-07T06:35:38;1.20;;;1.20;;
10523;SDS011;5310;48.638;9.060;2024-01-07T06:38:04;1.17;;;1.17;;
10523;SDS011;5310;48.638;9.060;2024-01-07T06:40:30;1.10;;;1.10;;
10523;SDS011;5310;48.638;9.060;2024-01-07T06:42:57;1.20;;;1.20;;
10523;SDS011;5310;48.638;9.060;2024-01-07T06:45:23;1.10;;;1.10;;
10523;SDS011;5310;48.638;9.060;2024-01-07T06:47:49;1.10;;;1.10;;
10523;SDS011;5310;48.638;9.060;2024-01-07T06:50:15;1.10;;;1.10;;
10523;SDS011;5310;48.638;9.060;2024-01-07T06:52:41;1.10;;;1.10;;
10523;SDS011;5310;48.638;9.060;2024-01-07T06:55:07;1.20;;;1.20;;
10523;SDS011;5310;48.638;9.060;2024-01-07T06:57:33;1.20;;;1.20;;
10523;SDS011;5310;48.638;9.060;2024-01-07T06:59:59;1.10;;;1.10;;
10523;SDS011;5310;48.638;9.060;2024-01-07T07:02:25;1.00;;;1.00;;
10523;SDS011;5310;48.638;9.060;2024-01-07T07:04:51;1.20;;;1.20;;
10523;SDS011;5310;48.638;9.060;2024-01-07T07:07:17;1.10;;;1.10;;
10523;SDS011;5310;48.638;9.060;2024-01-07T07:09:43;1.10;;;1.10;;
10523;SDS011;5310;48.638;9.060;2024-01-07T07:12:09;1.10;;;1.10;;
10523;SDS011;5310;48.638;9.060;2024-01-07T07:14:35;1.10;;;1.10;;
10523;SDS011;5310;48.638;9.060;2024-01-07T07:17:01;1.10;;;1.10;;
10523;SDS011;5310;48.638;9.060;2024-01-07T07:19:27;1.20;;;1.20;;
10523;SDS011;5310;48.638;9.060;2024-01-07T07:21:53;1.10;;;1.10;;
10523;SDS011;5310;48.638;9.060;2024-01-07T07:24:18;1.10;;;1.10;;
10523;SDS011;5310;48.638;9.060;2024-01-07T07:26:44;1.10;;;1.10;;
10523;SDS011;5310;48.638;9.060;2024-01-07T07:29:10;1.10;;;1.10;;
10523;SDS011;5310;48.638;9.060;2024-01-07T07:31:36;1.10;;;1.10;;
10523;SDS011;5310;48.638;9.060;2024-01-07T07:34:05;1.10;;;1.10;;
10523;SDS011;5310;48.638;9.060;2024-01-07T07:36:31;1.10;;;1.10;;
10523;SDS011;5310;48.638;9.060;2024-01-07T07:38:58;1.10;;;1.10;;
10523;SDS011;5310;48.638;9.060;2024-01-07T07:41:24;1.10;;;1.10;;
10523;SDS011;5310;48.638;9.060;2024-01-07T07:43:50;1.10;;;1.10;;
10523;SDS011;5310;48.638;9.060;2024-01-07T07:46:16;1.10;;;1.10;;
10523;SDS011;5310;48.638;9.060;2024-01-07T07:48:42;1.10;;;1.10;;
10523;SDS011;5310;48.638;9.060;2024-01-07T07:51:08;1.10;;;1.10;;
10523;SDS011;5310;48.638;9.060;2024-01-07T07:53:34;1.20;;;1.20;;
10523;SDS011;5310;48.638;9.060;2024-01-07T07:56:00;1.20;;;1.20;;
10523;SDS011;5310;48.638;9.060;2024-01-07T07:58:26;1.20;;;1.20;;
10523;SDS011;5310;48.638;9.060;2024-01-07T08:00:52;1.10;;;1.10;;
10523;SDS011;5310;48.638;9.060;2024-01-07T08:03:18;1.10;;;1.10;;
10523;SDS011;5310;48.638;9.060;2024-01-07T08:05:44;1.17;;;1.17;;
10523;SDS011;5310;48.638;9.060;2024-01-07T08:08:10;1.10;;;1.10;;
10523;SDS011;5310;48.638;9.060;2024-01-07T08:10:36;1.10;;;1.10;;
10523;SDS011;5310;48.638;9.060;2024-01-07T08:13:02;1.10;;;1.10;;
10523;SDS011;5310;48.638;9.060;2024-01-07T08:15:28;1.17;;;1.17;;
10523;SDS011;5310;48.638;9.060;2024-01-07T08:17:54;1.10;;;1.10;;
10523;SDS011;5310;48.638;9.060;2024-01-07T08:20:19;1.20;;;1.20;;
10523;SDS011;5310;48.638;9.060;2024-01-07T08:22:45;1.20;;;1.20;;
10523;SDS011;5310;48.638;9.060;2024-01-07T08:25:11;1.20;;;1.20;;
10523;SDS011;5310;48.638;9.060;2024-01-07T08:27:38;1.17;;;1.17;;
10523;SDS011;5310;48.638;9.060;2024-01-07T08:30:06;1.30;;;1.30;;
10523;SDS011;5310;48.638;9.060;2024-01-07T08:32:32;1.20;;;1.20;;
10523;SDS011;5310;48.638;9.060;2024-01-07T08:34:58;1.20;;;1.20;;
10523;SDS011;5310;48.638;9.060;2024-01-07T08:37:24;1.20;;;1.20;;
10523;SDS011;5310;48.638;9.060;2024-01-07T08:39:50;1.10;;;1.10;;
10523;SDS011;5310;48.638;9.060;2024-01-07T08:42:15;1.20;;;1.20;;
10523;SDS011;5310;48.638;9.060;2024-01-07T08:44:41;1.20;;;1.20;;
10523;SDS011;5310;48.638;9.060;2024-01-07T08:47:07;1.10;;;1.10;;
10523;SDS011;5310;48.638;9.060;2024-01-07T08:49:33;1.17;;;1.17;;
10523;SDS011;5310;48.638;9.060;2024-01-07T08:51:59;1.10;;;1.10;;
10523;SDS011;5310;48.638;9.060;2024-01-07T08:54:25;1.20;;;1.20;;
10523;SDS011;5310;48.638;9.060;2024-01-07T08:56:51;1.20;;;1.20;;
10523;SDS011;5310;48.638;9.060;2024-01-07T08:59:17;1.20;;;1.20;;
10523;SDS011;5310;48.638;9.060;2024-01-07T09:01:43;1.10;;;1.10;;
10523;SDS011;5310;48.638;9.060;2024-01-07T09:04:08;1.20;;;1.20;;
10523;SDS011;5310;48.638;9.060;2024-01-07T09:06:34;1.10;;;1.10;;
10523;SDS011;5310;48.638;9.060;2024-01-07T09:09:00;1.10;;;1.10;;
10523;SDS011;5310;48.638;9.060;2024-01-07T09:11:26;1.10;;;1.10;;
10523;SDS011;5310;48.638;9.060;2024-01-07T09:13:52;1.20;;;1.20;;
10523;SDS011;5310;48.638;9.060;2024-01-07T09:16:18;1.20;;;1.20;;
10523;SDS011;5310;48.638;9.060;2024-01-07T09:18:44;1.17;;;1.17;;
10523;SDS011;5310;48.638;9.060;2024-01-07T09:21:10;1.20;;;1.20;;
10523;SDS011;5310;48.638;9.060;2024-01-07T09:23:36;1.10;;;1.10;;
10523;SDS011;5310;48.638;9.060;2024-01-07T09:26:02;1.10;;;1.10;;
10523;SDS011;5310;48.638;9.060;2024-01-07T09:28:28;1.20;;;1.20;;
10523;SDS011;5310;48.638;9.060;2024-01-07T09:30:54;1.10;;;1.10;;
10523;SDS011;5310;48.638;9.060;2024-01-07T09:33:20;1.13;;;1.13;;
10523;SDS011;5310;48.638;9.060;2024-01-07T09:35:48;1.20;;;1.20;;
10523;SDS011;5310;48.638;9.060;2024-01-07T09:38:14;1.10;;;1.10;;
10523;SDS011;5310;48.638;9.060;2024-01-07T09:40:40;1.20;;;1.20;;
10523;SDS011;5310;48.638;9.060;2024-01-07T09:43:06;1.20;;;1.20;;
10523;SDS011;5310;48.638;9.060;2024-01-07T09:45:33;1.20;;;1.20;;
10523;SDS011;5310;48.638;9.060;2024-01-07T09:48:01;1.20;;;1.20;;
10523;SDS011;5310;48.638;9.060;2024-01-07T09:50:27;1.10;;;1.10;;
10523;SDS011;5310;48.638;9.060;2024-01-07T09:52:53;1.20;;;1.20;;
10523;SDS011;5310;48.638;9.060;2024-01-07T09:55:22;1.20;;;1.20;;
10523;SDS011;5310;48.638;9.060;2024-01-07T09:58:11;1.20;;;1.20;;
10523;SDS011;5310;48.638;9.060;2024-01-07T10:00:37;1.20;;;1.20;;
10523;SDS011;5310;48.638;9.060;2024-01-07T10:03:03;1.20;;;1.20;;
10523;SDS011;5310;48.638;9.060;2024-01-07T10:05:29;1.20;;;1.20;;
10523;SDS011;5310;48.638;9.060;2024-01-07T10:07:55;1.23;;;1.23;;
10523;SDS011;5310;48.638;9.060;2024-01-07T10:10:22;1.20;;;1.20;;
10523;SDS011;5310;48.638;9.060;2024-01-07T10:12:48;1.10;;;1.10;;
10523;SDS011;5310;48.638;9.060;2024-01-07T10:15:17;1.20;;;1.20;;
10523;SDS011;5310;48.638;9.060;2024-01-07T10:17:44;1.20;;;1.20;;
10523;SDS011;5310;48.638;9.060;2024-01-07T10:20:10;1.17;;;1.17;;
10523;SDS011;5310;48.638;9.060;2024-01-07T10:22:37;1.20;;;1.20;;
10523;SDS011;5310;48.638;9.060;2024-01-07T10:25:04;1.20;;;1.20;;
10523;SDS011;5310;48.638;9.060;2024-01-07T10:27:33;1.10;;;1.10;;
10523;SDS011;5310;48.638;9.060;2024-01-07T10:30:01;1.20;;;1.20;;
10523;SDS011;5310;48.638;9.060;2024-01-07T10:32:28;1.20;;;1.20;;
10523;SDS011;5310;48.638;9.060;2024-01-07T10:34:55;1.20;;;1.20;;
10523;SDS011;5310;48.638;9.060;2024-01-07T10:37:26;1.10;;;1.10;;
10523;SDS011;5310;48.638;9.060;2024-01-07T10:39:52;1.10;;;1.10;;
10523;SDS011;5310;48.638;9.060;2024-01-07T10:42:21;1.20;;;1.20;;
10523;SDS011;5310;48.638;9.060;2024-01-07T10:44:47;1.20;;;1.20;;
10523;SDS011;5310;48.638;9.060;2024-01-07T10:47:13;1.20;;;1.20;;
10523;SDS011;5310;48.638;9.060;2024-01-07T10:49:41;1.20;;;1.20;;
10523;SDS011;5310;48.638;9.060;2024-01-07T10:52:09;1.30;;;1.30;;
10523;SDS011;5310;48.638;9.060;2024-01-07T10:54:36;1.20;;;1.20;;
10523;SDS011;5310;48.638;9.060;2024-01-07T10:59:31;1.20;;;1.20;;
10523;SDS011;5310;48.638;9.060;2024-01-07T11:01:58;1.20;;;1.20;;
10523;SDS011;5310;48.638;9.060;2024-01-07T11:04:33;1.10;;;1.10;;
10523;SDS011;5310;48.638;9.060;2024-01-07T11:07:22;1.10;;;1.10;;
10523;SDS011;5310;48.638;9.060;2024-01-07T11:12:35;1.27;;;1.27;;
10523;SDS011;5310;48.638;9.060;2024-01-07T11:15:02;1.20;;;1.20;;
10523;SDS011;5310;48.638;9.060;2024-01-07T11:20:02;1.20;;;1.20;;
10523;SDS011;5310;48.638;9.060;2024-01-07T11:22:47;1.20;;;1.20;;
10523;SDS011;5310;48.638;9.060;2024-01-07T11:25:32;1.10;;;1.10;;
10523;SDS011;5310;48.638;9.060;2024-01-07T11:27:58;1.20;;;1.20;;
10523;SDS011;5310;48.638;9.060;2024-01-07T11:30:26;1.20;;;1.20;;
10523;SDS011;5310;48.638;9.060;2024-01-07T11:32:59;1.10;;;1.10;;
10523;SDS011;5310;48.638;9.060;2024-01-07T11:38:10;1.13;;;1.13;;
10523;SDS011;5310;48.638;9.060;2024-01-07T11:40:35;1.10;;;1.10;;
10523;SDS011;5310;48.638;9.060;2024-01-07T11:43:01;1.20;;;1.20;;
10523;SDS011;5310;48.638;9.060;2024-01-07T11:45:29;1.20;;;1.20;;
10523;SDS011;5310;48.638;9.060;2024-01-07T11:47:56;1.20;;;1.20;;
10523;SDS011;5310;48.638;9.060;2024-01-07T11:50:22;1.10;;;1.10;;
10523;SDS011;5310;48.638;9.060;2024-01-07T11:52:48;1.30;;;1.30;;
10523;SDS011;5310;48.638;9.060;2024-01-07T11:55:14;1.20;;;1.20;;
10523;SDS011;5310;48.638;9.060;2024-01-07T11:57:41;1.20;;;1.20;;
10523;SDS011;5310;48.638;9.060;2024-01-07T12:00:07;1.23;;;1.23;;
10523;SDS011;5310;48.638;9.060;2024-01-07T12:02:35;1.10;;;1.10;;
10523;SDS011;5310;48.638;9.060;2024-01-07T12:05:01;1.10;;;1.10;;
10523;SDS011;5310;48.638;9.060;2024-01-07T12:07:27;1.20;;;1.20;;
10523;SDS011;5310;48.638;9.060;2024-01-07T12:09:59;1.20;;;1.20;;
10523;SDS011;5310;48.638;9.060;2024-01-07T12:12:25;1.20;;;1.20;;
10523;SDS011;5310;48.638;9.060;2024-01-07T12:14:51;1.20;;;1.20;;
10523;SDS011;5310;48.638;9.060;2024-01-07T12:17:17;1.20;;;1.20;;
10523;SDS011;5310;48.638;9.060;2024-01-07T12:19:43;1.20;;;1.20;;
10523;SDS011;5310;48.638;9.060;2024-01-07T12:22:09;1.10;;;1.10;;
10523;SDS011;5310;48.638;9.060;2024-01-07T12:24:35;1.20;;;1.20;;
10523;SDS011;5310;48.638;9.060;2024-01-07T12:27:07;1.20;;;1.20;;
10523;SDS011;5310;48.638;9.060;2024-01-07T12:29:33;1.20;;;1.20;;
10523;SDS011;5310;48.638;9.060;2024-01-07T12:31:59;1.30;;;1.30;;
10523;SDS011;5310;48.638;9.060;2024-01-07T12:34:27;1.20;;;1.20;;
10523;SDS011;5310;48.638;9.060;2024-01-07T12:36:53;1.20;;;1.20;;
10523;SDS011;5310;48.638;9.060;2024-01-07T12:39:20;1.20;;;1.20;;
10523;SDS011;5310;48.638;9.060;2024-01-07T12:41:46;1.23;;;1.23;;
10523;SDS011;5310;48.638;9.060;2024-01-07T12:44:12;1.20;;;1.20;;
10523;SDS011;5310;48.638;9.060;2024-01-07T12:46:38;1.20;;;1.20;;
10523;SDS011;5310;48.638;9.060;2024-01-07T12:49:04;1.20;;;1.20;;
10523;SDS011;5310;48.638;9.060;2024-01-07T12:51:30;1.20;;;1.20;;
10523;SDS011;5310;48.638;9.060;2024-01-07T12:53:56;1.20;;;1.20;;
10523;SDS011;5310;48.638;9.060;2024-01-07T12:56:22;1.10;;;1.10;;
10523;SDS011;5310;48.638;9.060;2024-01-07T12:58:48;1.20;;;1.20;;
10523;SDS011;5310;48.638;9.060;2024-01-07T13:01:14;1.20;;;1.20;;
10523;SDS011;5310;48.638;9.060;2024-01-07T13:03:40;1.20;;;1.20;;
10523;SDS011;5310;48.638;9.060;2024-01-07T13:06:06;1.23;;;1.23;;
10523;SDS011;5310;48.638;9.060;2024-01-07T13:08:32;1.20;;;1.20;;
10523;SDS011;5310;48.638;9.060;2024-01-07T13:10:58;1.30;;;1.30;;
10523;SDS011;5310;48.638;9.060;2024-01-07T13:13:25;1.20;;;1.20;;
10523;SDS011;5310;48.638;9.060;2024-01-07T13:15:51;1.30;;;1.30;;
10523;SDS011;5310;48.638;9.060;2024-01-07T13:18:17;1.20;;;1.20;;
10523;SDS011;5310;48.638;9.060;2024-01-07T13:20:43;1.13;;;1.13;;
10523;SDS011;5310;48.638;9.060;2024-01-07T13:23:09;1.20;;;1.20;;
10523;SDS011;5310;48.638;9.060;2024-01-07T13:25:35;1.20;;;1.20;;
10523;SDS011;5310;48.638;9.060;2024-01-07T13:28:01;1.30;;;1.30;;
10523;SDS011;5310;48.638;9.060;2024-01-07T13:30:27;1.27;;;1.27;;
10523;SDS011;5310;48.638;9.060;2024-01-07T13:32:53;1.20;;;1.20;;
10523;SDS011;5310;48.638;9.060;2024-01-07T13:35:21;1.20;;;1.20;;
10523;SDS011;5310;48.638;9.060;2024-01-07T13:37:47;1.20;;;1.20;;
10523;SDS011;5310;48.638;9.060;2024-01-07T13:40:13;1.27;;;1.27;;
10523;SDS011;5310;48.638;9.060;2024-01-07T13:42:40;1.20;;;1.20;;
10523;SDS011;5310;48.638;9.060;2024-01-07T13:45:06;1.20;;;1.20;;
10523;SDS011;5310;48.638;9.060;2024-01-07T13:47:32;1.30;;;1.30;;
10523;SDS011;5310;48.638;9.060;2024-01-07T13:50:00;1.30;;;1.30;;
10523;SDS011;5310;48.638;9.060;2024-01-07T13:52:26;1.20;;;1.20;;
10523;SDS011;5310;48.638;9.060;2024-01-07T13:54:55;1.10;;;1.10;;
10523;SDS011;5310;48.638;9.060;2024-01-07T13:57:22;1.20;;;1.20;;
10523;SDS011;5310;48.638;9.060;2024-01-07T13:59:48;1.30;;;1.30;;
10523;SDS011;5310;48.638;9.060;2024-01-07T14:02:14;1.30;;;1.30;;
10523;SDS011;5310;48.638;9.060;2024-01-07T14:04:44;1.20;;;1.20;;
10523;SDS011;5310;48.638;9.060;2024-01-07T14:07:10;1.20;;;1.20;;
10523;SDS011;5310;48.638;9.060;2024-01-07T14:09:36;1.20;;;1.20;;
10523;SDS011;5310;48.638;9.060;2024-01-07T14:12:02;1.30;;;1.30;;
10523;SDS011;5310;48.638;9.060;2024-01-07T14:14:28;1.20;;;1.20;;
10523;SDS011;5310;48.638;9.060;2024-01-07T14:16:54;1.20;;;1.20;;
10523;SDS011;5310;48.638;9.060;2024-01-07T14:19:20;1.20;;;1.20;;
10523;SDS011;5310;48.638;9.060;2024-01-07T14:21:47;1.30;;;1.30;;
10523;SDS011;5310;48.638;9.060;2024-01-07T14:24:13;1.20;;;1.20;;
10523;SDS011;5310;48.638;9.060;2024-01-07T14:26:39;1.20;;;1.20;;
10523;SDS011;5310;48.638;9.060;2024-01-07T14:29:04;1.20;;;1.20;;
10523;SDS011;5310;48.638;9.060;2024-01-07T14:31:30;1.20;;;1.20;;
10523;SDS011;5310;48.638;9.060;2024-01-07T14:33:57;1.20;;;1.20;;
10523;SDS011;5310;48.638;9.060;2024-01-07T14:36:23;1.20;;;1.20;;
10523;SDS011;5310;48.638;9.060;2024-01-07T14:38:51;1.20;;;1.20;;
10523;SDS011;5310;48.638;9.060;2024-01-07T14:41:18;1.20;;;1.20;;
10523;SDS011;5310;48.638;9.060;2024-01-07T14:43:43;1.23;;;1.23;;
10523;SDS011;5310;48.638;9.060;2024-01-07T14:46:09;1.20;;;1.20;;
10523;SDS011;5310;48.638;9.060;2024-01-07T14:48:35;1.20;;;1.20;;
10523;SDS011;5310;48.638;9.060;2024-01-07T14:51:04;1.20;;;1.20;;
10523;SDS011;5310;48.638;9.060;2024-01-07T14:53:30;1.23;;;1.23;;
10523;SDS011;5310;48.638;9.060;2024-01-07T14:55:56;1.20;;;1.20;;
10523;SDS011;5310;48.638;9.060;2024-01-07T14:58:23;1.20;;;1.20;;
10523;SDS011;5310;48.638;9.060;2024-01-07T15:00:52;1.20;;;1.20;;
10523;SDS011;5310;48.638;9.060;2024-01-07T15:03:18;1.20;;;1.20;;
10523;SDS011;5310;48.638;9.060;2024-01-07T15:05:44;1.20;;;1.20;;